sensor_id;sensor_type;location;lat;lon;timestamp;P1;durP1;ratioP1;P2;durP2;ratioP2
44228;SDS011;29904;51.058;5.378;2023-07-09T00:01:52;10.17;;;6.47;;
44228;SDS011;29904;51.058;5.378;2023-07-09T00:04:19;10.93;;;7.10;;
44228;SDS011;29904;51.058;5.378;2023-07-09T00:06:45;10.95;;;7.68;;
44228;SDS011;29904;51.058;5.378;2023-07-09T00:09:15;9.52;;;6.88;;
44228;SDS011;29904;51.058;5.378;2023-07-09T00:11:43;12.10;;;7.25;;
44228;SDS011;29904;51.058;5.378;2023-07-09T00:14:10;8.77;;;6.30;;
44228;SDS011;29904;51.058;5.378;2023-07-09T00:16:38;8.75;;;5.70;;
44228;SDS011;29904;51.058;5.378;2023-07-09T00:19:17;9.70;;;6.75;;
44228;SDS011;29904;51.058;5.378;2023-07-09T00:21:45;7.88;;;5.78;;
44228;SDS011;29904;51.058;5.378;2023-07-09T00:24:13;8.95;;;5.97;;
44228;SDS011;29904;51.058;5.378;2023-07-09T00:26:39;8.02;;;5.80;;
44228;SDS011;29904;51.058;5.378;2023-07-09T00:29:09;7.67;;;5.83;;
44228;SDS011;29904;51.058;5.378;2023-07-09T00:31:36;9.43;;;6.30;;
44228;SDS011;29904;51.058;5.378;2023-07-09T00:34:06;9.18;;;6.30;;
44228;SDS011;29904;51.058;5.378;2023-07-09T00:36:33;9.02;;;6.00;;
44228;SDS011;29904;51.058;5.378;2023-07-09T00:39:00;7.83;;;5.70;;
44228;SDS011;29904;51.058;5.378;2023-07-09T00:41:31;9.45;;;6.35;;
44228;SDS011;29904;51.058;5.378;2023-07-09T00:44:00;6.73;;;5.50;;
44228;SDS011;29904;51.058;5.378;2023-07-09T00:49:14;10.10;;;6.78;;
44228;SDS011;29904;51.058;5.378;2023-07-09T00:51:51;9.82;;;7.43;;
44228;SDS011;29904;51.058;5.378;2023-07-09T00:54:28;9.88;;;6.88;;
44228;SDS011;29904;51.058;5.378;2023-07-09T00:57:05;11.00;;;6.75;;
44228;SDS011;29904;51.058;5.378;2023-07-09T00:59:37;9.48;;;6.53;;
44228;SDS011;29904;51.058;5.378;2023-07-09T01:02:07;10.02;;;6.57;;
44228;SDS011;29904;51.058;5.378;2023-07-09T01:04:33;9.57;;;6.93;;
44228;SDS011;29904;51.058;5.378;2023-07-09T01:07:00;7.70;;;5.63;;
44228;SDS011;29904;51.058;5.378;2023-07-09T01:09:26;7.23;;;5.43;;
44228;SDS011;29904;51.058;5.378;2023-07-09T01:11:51;6.28;;;4.97;;
44228;SDS011;29904;51.058;5.378;2023-07-09T01:14:21;6.40;;;4.70;;
44228;SDS011;29904;51.058;5.378;2023-07-09T01:17:00;6.97;;;4.95;;
44228;SDS011;29904;51.058;5.378;2023-07-09T01:19:35;5.82;;;4.90;;
44228;SDS011;29904;51.058;5.378;2023-07-09T01:22:14;7.80;;;4.90;;
44228;SDS011;29904;51.058;5.378;2023-07-09T01:27:31;7.78;;;4.90;;
44228;SDS011;29904;51.058;5.378;2023-07-09T01:32:48;6.45;;;5.10;;
44228;SDS011;29904;51.058;5.378;2023-07-09T01:35:16;6.93;;;5.10;;
44228;SDS011;29904;51.058;5.378;2023-07-09T01:37:45;6.78;;;4.95;;
44228;SDS011;29904;51.058;5.378;2023-07-09T01:40:14;6.47;;;4.75;;
44228;SDS011;29904;51.058;5.378;2023-07-09T01:42:43;8.15;;;5.30;;
44228;SDS011;29904;51.058;5.378;2023-07-09T01:45:10;7.40;;;5.13;;
44228;SDS011;29904;51.058;5.378;2023-07-09T01:47:38;7.82;;;5.53;;
44228;SDS011;29904;51.058;5.378;2023-07-09T01:50:05;10.18;;;6.32;;
44228;SDS011;29904;51.058;5.378;2023-07-09T01:52:31;10.70;;;6.70;;
44228;SDS011;29904;51.058;5.378;2023-07-09T01:54:58;9.57;;;6.47;;
44228;SDS011;29904;51.058;5.378;2023-07-09T01:57:27;10.10;;;6.57;;
44228;SDS011;29904;51.058;5.378;2023-07-09T02:00:01;9.03;;;6.40;;
44228;SDS011;29904;51.058;5.378;2023-07-09T02:02:30;7.35;;;5.60;;
44228;SDS011;29904;51.058;5.378;2023-07-09T02:04:57;9.32;;;6.15;;
44228;SDS011;29904;51.058;5.378;2023-07-09T02:07:24;9.20;;;5.93;;
44228;SDS011;29904;51.058;5.378;2023-07-09T02:09:51;8.15;;;5.60;;
44228;SDS011;29904;51.058;5.378;2023-07-09T02:12:17;7.65;;;4.95;;
44228;SDS011;29904;51.058;5.378;2023-07-09T02:14:44;8.10;;;5.60;;
44228;SDS011;29904;51.058;5.378;2023-07-09T02:17:13;6.93;;;5.35;;
44228;SDS011;29904;51.058;5.378;2023-07-09T02:19:39;7.60;;;5.53;;
44228;SDS011;29904;51.058;5.378;2023-07-09T02:22:05;8.27;;;5.40;;
44228;SDS011;29904;51.058;5.378;2023-07-09T02:24:32;8.48;;;6.20;;
44228;SDS011;29904;51.058;5.378;2023-07-09T02:26:59;8.50;;;5.82;;
44228;SDS011;29904;51.058;5.378;2023-07-09T02:29:26;9.00;;;6.17;;
44228;SDS011;29904;51.058;5.378;2023-07-09T02:31:55;8.65;;;5.80;;
44228;SDS011;29904;51.058;5.378;2023-07-09T02:34:23;9.93;;;5.70;;
44228;SDS011;29904;51.058;5.378;2023-07-09T02:36:51;7.97;;;5.35;;
44228;SDS011;29904;51.058;5.378;2023-07-09T02:39:21;8.77;;;5.43;;
44228;SDS011;29904;51.058;5.378;2023-07-09T02:41:47;9.37;;;6.10;;
44228;SDS011;29904;51.058;5.378;2023-07-09T02:44:13;7.90;;;5.68;;
44228;SDS011;29904;51.058;5.378;2023-07-09T02:46:39;9.65;;;5.70;;
44228;SDS011;29904;51.058;5.378;2023-07-09T02:49:05;8.18;;;5.75;;
44228;SDS011;29904;51.058;5.378;2023-07-09T02:51:32;10.43;;;6.82;;
44228;SDS011;29904;51.058;5.378;2023-07-09T02:54:00;8.60;;;6.40;;
44228;SDS011;29904;51.058;5.378;2023-07-09T02:56:27;9.67;;;5.97;;
44228;SDS011;29904;51.058;5.378;2023-07-09T02:58:53;8.47;;;5.60;;
44228;SDS011;29904;51.058;5.378;2023-07-09T03:01:19;7.78;;;5.32;;
44228;SDS011;29904;51.058;5.378;2023-07-09T03:03:53;7.90;;;5.72;;
44228;SDS011;29904;51.058;5.378;2023-07-09T03:06:22;7.40;;;5.50;;
44228;SDS011;29904;51.058;5.378;2023-07-09T03:08:51;9.13;;;6.07;;
44228;SDS011;29904;51.058;5.378;2023-07-09T03:11:17;9.47;;;6.17;;
44228;SDS011;29904;51.058;5.378;2023-07-09T03:13:43;9.13;;;5.75;;
44228;SDS011;29904;51.058;5.378;2023-07-09T03:16:12;9.13;;;6.43;;
44228;SDS011;29904;51.058;5.378;2023-07-09T03:18:38;7.80;;;5.85;;
44228;SDS011;29904;51.058;5.378;2023-07-09T03:21:04;8.03;;;5.80;;
44228;SDS011;29904;51.058;5.378;2023-07-09T03:23:30;7.63;;;5.78;;
44228;SDS011;29904;51.058;5.378;2023-07-09T03:25:56;7.93;;;5.40;;
44228;SDS011;29904;51.058;5.378;2023-07-09T03:28:25;7.95;;;5.30;;
44228;SDS011;29904;51.058;5.378;2023-07-09T03:30:52;8.15;;;5.90;;
44228;SDS011;29904;51.058;5.378;2023-07-09T03:33:19;8.55;;;5.32;;
44228;SDS011;29904;51.058;5.378;2023-07-09T03:35:52;9.23;;;6.13;;
44228;SDS011;29904;51.058;5.378;2023-07-09T03:38:18;8.55;;;5.45;;
44228;SDS011;29904;51.058;5.378;2023-07-09T03:40:44;8.70;;;5.75;;
44228;SDS011;29904;51.058;5.378;2023-07-09T03:43:10;8.30;;;5.82;;
44228;SDS011;29904;51.058;5.378;2023-07-09T03:45:36;8.13;;;5.63;;
44228;SDS011;29904;51.058;5.378;2023-07-09T03:48:04;8.50;;;6.05;;
44228;SDS011;29904;51.058;5.378;2023-07-09T03:50:31;8.23;;;5.32;;
44228;SDS011;29904;51.058;5.378;2023-07-09T03:52:56;7.50;;;5.73;;
44228;SDS011;29904;51.058;5.378;2023-07-09T03:55:22;9.43;;;6.03;;
44228;SDS011;29904;51.058;5.378;2023-07-09T03:57:51;7.78;;;5.72;;
44228;SDS011;29904;51.058;5.378;2023-07-09T04:00:18;7.07;;;5.07;;
44228;SDS011;29904;51.058;5.378;2023-07-09T04:02:44;9.23;;;5.77;;
44228;SDS011;29904;51.058;5.378;2023-07-09T04:05:10;9.55;;;5.45;;
44228;SDS011;29904;51.058;5.378;2023-07-09T04:07:37;11.02;;;6.03;;
44228;SDS011;29904;51.058;5.378;2023-07-09T04:10:03;7.37;;;5.10;;
44228;SDS011;29904;51.058;5.378;2023-07-09T04:12:30;6.97;;;5.25;;
44228;SDS011;29904;51.058;5.378;2023-07-09T04:14:55;6.63;;;4.65;;
44228;SDS011;29904;51.058;5.378;2023-07-09T04:17:21;7.33;;;5.40;;
44228;SDS011;29904;51.058;5.378;2023-07-09T04:19:49;9.77;;;5.90;;
44228;SDS011;29904;51.058;5.378;2023-07-09T04:22:16;10.07;;;6.93;;
44228;SDS011;29904;51.058;5.378;2023-07-09T04:24:42;10.02;;;5.85;;
44228;SDS011;29904;51.058;5.378;2023-07-09T04:27:08;8.82;;;6.20;;
44228;SDS011;29904;51.058;5.378;2023-07-09T04:29:34;8.47;;;5.60;;
44228;SDS011;29904;51.058;5.378;2023-07-09T04:32:01;7.40;;;5.30;;
44228;SDS011;29904;51.058;5.378;2023-07-09T04:34:29;7.68;;;5.18;;
44228;SDS011;29904;51.058;5.378;2023-07-09T04:36:57;9.07;;;6.00;;
44228;SDS011;29904;51.058;5.378;2023-07-09T04:39:22;9.90;;;6.07;;
44228;SDS011;29904;51.058;5.378;2023-07-09T04:41:48;8.35;;;5.75;;
44228;SDS011;29904;51.058;5.378;2023-07-09T04:44:14;10.07;;;5.95;;
44228;SDS011;29904;51.058;5.378;2023-07-09T04:46:40;8.50;;;6.10;;
44228;SDS011;29904;51.058;5.378;2023-07-09T04:49:06;9.05;;;5.47;;
44228;SDS011;29904;51.058;5.378;2023-07-09T04:51:32;7.57;;;5.90;;
44228;SDS011;29904;51.058;5.378;2023-07-09T04:53:58;8.10;;;6.18;;
44228;SDS011;29904;51.058;5.378;2023-07-09T04:56:28;7.75;;;5.93;;
44228;SDS011;29904;51.058;5.378;2023-07-09T04:58:55;8.30;;;5.97;;
44228;SDS011;29904;51.058;5.378;2023-07-09T05:01:21;8.50;;;6.20;;
44228;SDS011;29904;51.058;5.378;2023-07-09T05:03:47;8.53;;;6.10;;
44228;SDS011;29904;51.058;5.378;2023-07-09T05:06:17;8.65;;;6.05;;
44228;SDS011;29904;51.058;5.378;2023-07-09T05:08:43;10.10;;;5.90;;
44228;SDS011;29904;51.058;5.378;2023-07-09T05:11:08;9.02;;;6.15;;
44228;SDS011;29904;51.058;5.378;2023-07-09T05:13:36;10.25;;;6.20;;
44228;SDS011;29904;51.058;5.378;2023-07-09T05:16:02;8.57;;;5.97;;
44228;SDS011;29904;51.058;5.378;2023-07-09T05:18:27;11.13;;;6.10;;
44228;SDS011;29904;51.058;5.378;2023-07-09T05:20:57;9.07;;;6.10;;
44228;SDS011;29904;51.058;5.378;2023-07-09T05:23:25;7.93;;;5.90;;
44228;SDS011;29904;51.058;5.378;2023-07-09T05:25:57;8.20;;;5.85;;
44228;SDS011;29904;51.058;5.378;2023-07-09T05:28:24;7.78;;;5.78;;
44228;SDS011;29904;51.058;5.378;2023-07-09T05:30:52;9.90;;;5.65;;
44228;SDS011;29904;51.058;5.378;2023-07-09T05:33:18;7.93;;;5.43;;
44228;SDS011;29904;51.058;5.378;2023-07-09T05:35:44;7.78;;;5.43;;
44228;SDS011;29904;51.058;5.378;2023-07-09T05:38:12;7.97;;;5.38;;
44228;SDS011;29904;51.058;5.378;2023-07-09T05:40:39;8.25;;;5.20;;
44228;SDS011;29904;51.058;5.378;2023-07-09T05:43:05;7.05;;;5.00;;
44228;SDS011;29904;51.058;5.378;2023-07-09T05:45:33;8.43;;;5.32;;
44228;SDS011;29904;51.058;5.378;2023-07-09T05:47:59;8.30;;;4.88;;
44228;SDS011;29904;51.058;5.378;2023-07-09T05:50:25;8.13;;;4.88;;
44228;SDS011;29904;51.058;5.378;2023-07-09T05:52:52;6.45;;;4.85;;
44228;SDS011;29904;51.058;5.378;2023-07-09T05:55:18;8.90;;;4.53;;
44228;SDS011;29904;51.058;5.378;2023-07-09T05:57:44;7.27;;;4.37;;
44228;SDS011;29904;51.058;5.378;2023-07-09T06:00:10;6.80;;;4.55;;
44228;SDS011;29904;51.058;5.378;2023-07-09T06:02:37;7.75;;;4.38;;
44228;SDS011;29904;51.058;5.378;2023-07-09T06:05:03;7.25;;;4.22;;
44228;SDS011;29904;51.058;5.378;2023-07-09T06:07:30;6.75;;;4.47;;
44228;SDS011;29904;51.058;5.378;2023-07-09T06:09:55;6.93;;;4.27;;
44228;SDS011;29904;51.058;5.378;2023-07-09T06:12:22;5.57;;;4.00;;
44228;SDS011;29904;51.058;5.378;2023-07-09T06:14:48;6.47;;;4.20;;
44228;SDS011;29904;51.058;5.378;2023-07-09T06:17:14;6.20;;;4.30;;
44228;SDS011;29904;51.058;5.378;2023-07-09T06:19:40;6.65;;;3.90;;
44228;SDS011;29904;51.058;5.378;2023-07-09T06:22:06;7.60;;;4.20;;
44228;SDS011;29904;51.058;5.378;2023-07-09T06:24:31;7.75;;;4.10;;
44228;SDS011;29904;51.058;5.378;2023-07-09T06:26:57;6.50;;;3.90;;
44228;SDS011;29904;51.058;5.378;2023-07-09T06:29:24;6.95;;;4.38;;
44228;SDS011;29904;51.058;5.378;2023-07-09T06:31:50;6.65;;;3.63;;
44228;SDS011;29904;51.058;5.378;2023-07-09T06:34:16;6.05;;;4.00;;
44228;SDS011;29904;51.058;5.378;2023-07-09T06:36:41;6.73;;;3.83;;
44228;SDS011;29904;51.058;5.378;2023-07-09T06:39:07;7.43;;;3.95;;
44228;SDS011;29904;51.058;5.378;2023-07-09T06:41:33;5.22;;;3.47;;
44228;SDS011;29904;51.058;5.378;2023-07-09T06:44:04;6.82;;;3.80;;
44228;SDS011;29904;51.058;5.378;2023-07-09T06:46:31;8.55;;;4.00;;
44228;SDS011;29904;51.058;5.378;2023-07-09T06:48:56;5.95;;;3.60;;
44228;SDS011;29904;51.058;5.378;2023-07-09T06:51:22;6.38;;;3.58;;
44228;SDS011;29904;51.058;5.378;2023-07-09T06:53:48;6.63;;;3.87;;
44228;SDS011;29904;51.058;5.378;2023-07-09T06:56:15;6.28;;;3.30;;
44228;SDS011;29904;51.058;5.378;2023-07-09T06:58:41;6.47;;;3.42;;
44228;SDS011;29904;51.058;5.378;2023-07-09T07:01:07;5.53;;;3.45;;
44228;SDS011;29904;51.058;5.378;2023-07-09T07:03:35;7.25;;;3.80;;
44228;SDS011;29904;51.058;5.378;2023-07-09T07:06:00;5.35;;;3.22;;
44228;SDS011;29904;51.058;5.378;2023-07-09T07:08:26;5.17;;;3.50;;
44228;SDS011;29904;51.058;5.378;2023-07-09T07:10:56;5.85;;;3.40;;
44228;SDS011;29904;51.058;5.378;2023-07-09T07:13:37;7.80;;;3.80;;
44228;SDS011;29904;51.058;5.378;2023-07-09T07:16:05;7.07;;;3.72;;
44228;SDS011;29904;51.058;5.378;2023-07-09T07:18:33;5.72;;;3.22;;
44228;SDS011;29904;51.058;5.378;2023-07-09T07:20:59;6.88;;;3.50;;
44228;SDS011;29904;51.058;5.378;2023-07-09T07:23:27;5.22;;;3.35;;
44228;SDS011;29904;51.058;5.378;2023-07-09T07:25:53;5.70;;;3.53;;
44228;SDS011;29904;51.058;5.378;2023-07-09T07:28:19;8.57;;;3.72;;
44228;SDS011;29904;51.058;5.378;2023-07-09T07:30:46;6.13;;;3.50;;
44228;SDS011;29904;51.058;5.378;2023-07-09T07:33:13;6.40;;;3.70;;
44228;SDS011;29904;51.058;5.378;2023-07-09T07:35:41;5.90;;;3.78;;
44228;SDS011;29904;51.058;5.378;2023-07-09T07:38:07;6.57;;;4.00;;
44228;SDS011;29904;51.058;5.378;2023-07-09T07:40:32;5.38;;;3.70;;
44228;SDS011;29904;51.058;5.378;2023-07-09T07:42:58;6.27;;;3.47;;
44228;SDS011;29904;51.058;5.378;2023-07-09T07:45:24;6.55;;;3.90;;
44228;SDS011;29904;51.058;5.378;2023-07-09T07:47:49;9.40;;;3.50;;
44228;SDS011;29904;51.058;5.378;2023-07-09T07:50:17;8.90;;;3.58;;
44228;SDS011;29904;51.058;5.378;2023-07-09T07:52:43;6.30;;;3.42;;
44228;SDS011;29904;51.058;5.378;2023-07-09T07:55:09;5.93;;;3.07;;
44228;SDS011;29904;51.058;5.378;2023-07-09T07:57:35;8.25;;;3.50;;
44228;SDS011;29904;51.058;5.378;2023-07-09T08:00:03;7.35;;;3.10;;
44228;SDS011;29904;51.058;5.378;2023-07-09T08:02:29;5.73;;;3.23;;
44228;SDS011;29904;51.058;5.378;2023-07-09T08:04:55;5.45;;;3.28;;
44228;SDS011;29904;51.058;5.378;2023-07-09T08:07:23;4.93;;;3.22;;
44228;SDS011;29904;51.058;5.378;2023-07-09T08:09:48;5.63;;;3.10;;
44228;SDS011;29904;51.058;5.378;2023-07-09T08:12:14;7.63;;;3.13;;
44228;SDS011;29904;51.058;5.378;2023-07-09T08:14:41;6.00;;;3.38;;
44228;SDS011;29904;51.058;5.378;2023-07-09T08:17:10;7.53;;;3.30;;
44228;SDS011;29904;51.058;5.378;2023-07-09T08:22:15;3.85;;;2.65;;
44228;SDS011;29904;51.058;5.378;2023-07-09T08:24:42;4.90;;;2.85;;
44228;SDS011;29904;51.058;5.378;2023-07-09T08:27:08;4.80;;;2.80;;
44228;SDS011;29904;51.058;5.378;2023-07-09T08:29:36;5.20;;;2.85;;
44228;SDS011;29904;51.058;5.378;2023-07-09T08:32:02;3.78;;;2.70;;
44228;SDS011;29904;51.058;5.378;2023-07-09T08:34:28;5.13;;;2.70;;
44228;SDS011;29904;51.058;5.378;2023-07-09T08:36:54;5.50;;;3.15;;
44228;SDS011;29904;51.058;5.378;2023-07-09T08:39:20;9.98;;;2.80;;
44228;SDS011;29904;51.058;5.378;2023-07-09T08:47:02;5.10;;;2.70;;
44228;SDS011;29904;51.058;5.378;2023-07-09T08:50:09;5.10;;;3.00;;
44228;SDS011;29904;51.058;5.378;2023-07-09T08:55:04;4.60;;;3.20;;
44228;SDS011;29904;51.058;5.378;2023-07-09T08:57:37;4.03;;;2.85;;
44228;SDS011;29904;51.058;5.378;2023-07-09T09:02:58;5.07;;;2.97;;
44228;SDS011;29904;51.058;5.378;2023-07-09T09:05:37;4.78;;;2.60;;
44228;SDS011;29904;51.058;5.378;2023-07-09T09:11:05;6.25;;;3.20;;
44228;SDS011;29904;51.058;5.378;2023-07-09T09:13:58;4.68;;;2.58;;
44228;SDS011;29904;51.058;5.378;2023-07-09T09:16:30;5.27;;;2.77;;
44228;SDS011;29904;51.058;5.378;2023-07-09T09:18:59;5.32;;;2.90;;
44228;SDS011;29904;51.058;5.378;2023-07-09T09:24:09;3.53;;;2.70;;
44228;SDS011;29904;51.058;5.378;2023-07-09T09:26:51;5.28;;;2.90;;
44228;SDS011;29904;51.058;5.378;2023-07-09T09:29:23;5.78;;;3.20;;
44228;SDS011;29904;51.058;5.378;2023-07-09T09:31:50;5.03;;;2.60;;
44228;SDS011;29904;51.058;5.378;2023-07-09T09:34:24;3.83;;;2.80;;
44228;SDS011;29904;51.058;5.378;2023-07-09T09:36:53;5.03;;;2.60;;
44228;SDS011;29904;51.058;5.378;2023-07-09T09:39:20;5.35;;;2.65;;
44228;SDS011;29904;51.058;5.378;2023-07-09T09:41:46;5.22;;;3.10;;
44228;SDS011;29904;51.058;5.378;2023-07-09T09:44:18;6.38;;;3.13;;
44228;SDS011;29904;51.058;5.378;2023-07-09T09:46:45;4.85;;;2.80;;
44228;SDS011;29904;51.058;5.378;2023-07-09T09:49:12;4.15;;;2.97;;
44228;SDS011;29904;51.058;5.378;2023-07-09T09:51:39;4.45;;;2.95;;
44228;SDS011;29904;51.058;5.378;2023-07-09T09:54:11;4.03;;;2.88;;
44228;SDS011;29904;51.058;5.378;2023-07-09T09:56:50;4.72;;;3.00;;
44228;SDS011;29904;51.058;5.378;2023-07-09T09:59:24;6.78;;;3.10;;
44228;SDS011;29904;51.058;5.378;2023-07-09T10:01:59;4.90;;;3.00;;
44228;SDS011;29904;51.058;5.378;2023-07-09T10:04:27;6.03;;;3.05;;
44228;SDS011;29904;51.058;5.378;2023-07-09T10:06:56;6.28;;;2.65;;
44228;SDS011;29904;51.058;5.378;2023-07-09T10:18:32;5.45;;;2.97;;
44228;SDS011;29904;51.058;5.378;2023-07-09T10:20:59;3.53;;;2.53;;
44228;SDS011;29904;51.058;5.378;2023-07-09T10:23:47;3.40;;;2.53;;
44228;SDS011;29904;51.058;5.378;2023-07-09T10:26:27;5.28;;;2.70;;
44228;SDS011;29904;51.058;5.378;2023-07-09T10:31:55;5.72;;;2.70;;
44228;SDS011;29904;51.058;5.378;2023-07-09T10:40:32;4.78;;;2.70;;
44228;SDS011;29904;51.058;5.378;2023-07-09T10:43:05;5.82;;;3.20;;
44228;SDS011;29904;51.058;5.378;2023-07-09T10:45:39;4.72;;;2.78;;
44228;SDS011;29904;51.058;5.378;2023-07-09T10:48:31;4.68;;;2.53;;
44228;SDS011;29904;51.058;5.378;2023-07-09T10:51:02;5.03;;;2.40;;
44228;SDS011;29904;51.058;5.378;2023-07-09T10:56:16;5.90;;;2.58;;
44228;SDS011;29904;51.058;5.378;2023-07-09T11:01:28;5.80;;;2.80;;
44228;SDS011;29904;51.058;5.378;2023-07-09T11:03:59;3.97;;;2.60;;
44228;SDS011;29904;51.058;5.378;2023-07-09T11:06:41;3.97;;;2.42;;
44228;SDS011;29904;51.058;5.378;2023-07-09T11:09:16;4.77;;;2.30;;
44228;SDS011;29904;51.058;5.378;2023-07-09T11:11:59;4.20;;;2.35;;
44228;SDS011;29904;51.058;5.378;2023-07-09T11:17:00;3.13;;;2.35;;
44228;SDS011;29904;51.058;5.378;2023-07-09T11:19:27;5.05;;;2.67;;
44228;SDS011;29904;51.058;5.378;2023-07-09T11:22:12;4.13;;;2.50;;
44228;SDS011;29904;51.058;5.378;2023-07-09T11:24:52;5.22;;;2.58;;
44228;SDS011;29904;51.058;5.378;2023-07-09T11:27:30;4.57;;;2.50;;
44228;SDS011;29904;51.058;5.378;2023-07-09T11:32:26;3.08;;;2.38;;
44228;SDS011;29904;51.058;5.378;2023-07-09T11:34:53;3.92;;;2.33;;
44228;SDS011;29904;51.058;5.378;2023-07-09T11:37:21;5.40;;;2.63;;
44228;SDS011;29904;51.058;5.378;2023-07-09T11:39:50;4.32;;;2.70;;
44228;SDS011;29904;51.058;5.378;2023-07-09T11:42:23;5.27;;;2.57;;
44228;SDS011;29904;51.058;5.378;2023-07-09T11:44:52;4.32;;;2.63;;
44228;SDS011;29904;51.058;5.378;2023-07-09T11:47:43;5.13;;;2.58;;
44228;SDS011;29904;51.058;5.378;2023-07-09T11:50:24;4.33;;;2.50;;
44228;SDS011;29904;51.058;5.378;2023-07-09T11:58:09;4.47;;;2.55;;
44228;SDS011;29904;51.058;5.378;2023-07-09T12:00:54;4.75;;;2.60;;
44228;SDS011;29904;51.058;5.378;2023-07-09T12:03:32;7.22;;;2.78;;
44228;SDS011;29904;51.058;5.378;2023-07-09T12:06:02;7.72;;;3.05;;
44228;SDS011;29904;51.058;5.378;2023-07-09T12:10:57;8.23;;;3.80;;
44228;SDS011;29904;51.058;5.378;2023-07-09T12:13:25;6.22;;;3.70;;
44228;SDS011;29904;51.058;5.378;2023-07-09T12:15:51;8.83;;;4.20;;
44228;SDS011;29904;51.058;5.378;2023-07-09T12:18:16;6.13;;;4.10;;
44228;SDS011;29904;51.058;5.378;2023-07-09T12:20:49;7.22;;;4.50;;
44228;SDS011;29904;51.058;5.378;2023-07-09T12:23:27;7.85;;;4.70;;
44228;SDS011;29904;51.058;5.378;2023-07-09T12:25:56;6.15;;;4.30;;
44228;SDS011;29904;51.058;5.378;2023-07-09T12:28:27;8.52;;;4.32;;
44228;SDS011;29904;51.058;5.378;2023-07-09T12:30:53;7.65;;;4.40;;
44228;SDS011;29904;51.058;5.378;2023-07-09T12:33:23;8.02;;;5.03;;
44228;SDS011;29904;51.058;5.378;2023-07-09T12:35:59;7.25;;;4.90;;
44228;SDS011;29904;51.058;5.378;2023-07-09T12:38:28;8.57;;;6.23;;
44228;SDS011;29904;51.058;5.378;2023-07-09T12:41:20;9.90;;;6.22;;
44228;SDS011;29904;51.058;5.378;2023-07-09T12:43:50;8.05;;;5.80;;
44228;SDS011;29904;51.058;5.378;2023-07-09T12:46:18;10.77;;;6.65;;
44228;SDS011;29904;51.058;5.378;2023-07-09T12:48:45;7.63;;;5.60;;
44228;SDS011;29904;51.058;5.378;2023-07-09T12:51:18;9.48;;;6.38;;
44228;SDS011;29904;51.058;5.378;2023-07-09T12:53:46;8.60;;;6.70;;
44228;SDS011;29904;51.058;5.378;2023-07-09T12:56:13;12.27;;;7.00;;
44228;SDS011;29904;51.058;5.378;2023-07-09T12:58:42;8.60;;;5.72;;
44228;SDS011;29904;51.058;5.378;2023-07-09T13:01:18;11.73;;;7.30;;
44228;SDS011;29904;51.058;5.378;2023-07-09T13:03:53;10.80;;;6.47;;
44228;SDS011;29904;51.058;5.378;2023-07-09T13:09:01;10.40;;;6.65;;
44228;SDS011;29904;51.058;5.378;2023-07-09T13:11:35;8.80;;;6.20;;
44228;SDS011;29904;51.058;5.378;2023-07-09T13:14:05;9.50;;;6.57;;
44228;SDS011;29904;51.058;5.378;2023-07-09T13:16:44;8.95;;;6.50;;
44228;SDS011;29904;51.058;5.378;2023-07-09T13:19:12;10.40;;;6.68;;
44228;SDS011;29904;51.058;5.378;2023-07-09T13:21:38;11.43;;;6.90;;
44228;SDS011;29904;51.058;5.378;2023-07-09T13:24:12;8.98;;;6.72;;
44228;SDS011;29904;51.058;5.378;2023-07-09T13:26:47;8.85;;;6.75;;
44228;SDS011;29904;51.058;5.378;2023-07-09T13:29:14;12.98;;;7.28;;
44228;SDS011;29904;51.058;5.378;2023-07-09T13:31:42;8.45;;;6.22;;
44228;SDS011;29904;51.058;5.378;2023-07-09T13:34:19;10.32;;;6.55;;
44228;SDS011;29904;51.058;5.378;2023-07-09T13:36:48;9.52;;;6.20;;
44228;SDS011;29904;51.058;5.378;2023-07-09T13:39:14;10.88;;;6.50;;
44228;SDS011;29904;51.058;5.378;2023-07-09T13:41:44;9.63;;;6.05;;
44228;SDS011;29904;51.058;5.378;2023-07-09T13:44:13;8.65;;;5.78;;
44228;SDS011;29904;51.058;5.378;2023-07-09T13:46:40;7.72;;;5.40;;
44228;SDS011;29904;51.058;5.378;2023-07-09T13:49:10;9.82;;;6.40;;
44228;SDS011;29904;51.058;5.378;2023-07-09T13:51:39;10.20;;;5.72;;
44228;SDS011;29904;51.058;5.378;2023-07-09T13:54:14;10.10;;;5.87;;
44228;SDS011;29904;51.058;5.378;2023-07-09T13:56:42;8.27;;;4.97;;
44228;SDS011;29904;51.058;5.378;2023-07-09T13:59:12;8.60;;;4.60;;
44228;SDS011;29904;51.058;5.378;2023-07-09T14:01:40;9.95;;;5.50;;
44228;SDS011;29904;51.058;5.378;2023-07-09T14:04:08;8.50;;;4.60;;
44228;SDS011;29904;51.058;5.378;2023-07-09T14:06:36;8.40;;;4.97;;
44228;SDS011;29904;51.058;5.378;2023-07-09T14:09:04;7.30;;;5.13;;
44228;SDS011;29904;51.058;5.378;2023-07-09T14:11:31;8.63;;;5.00;;
44228;SDS011;29904;51.058;5.378;2023-07-09T14:13:57;9.02;;;5.20;;
44228;SDS011;29904;51.058;5.378;2023-07-09T14:16:25;6.45;;;4.50;;
44228;SDS011;29904;51.058;5.378;2023-07-09T14:18:51;7.90;;;4.60;;
44228;SDS011;29904;51.058;5.378;2023-07-09T14:21:18;7.07;;;3.90;;
44228;SDS011;29904;51.058;5.378;2023-07-09T14:23:49;7.63;;;4.50;;
44228;SDS011;29904;51.058;5.378;2023-07-09T14:26:14;7.10;;;4.33;;
44228;SDS011;29904;51.058;5.378;2023-07-09T14:28:40;9.35;;;4.97;;
44228;SDS011;29904;51.058;5.378;2023-07-09T14:31:13;7.47;;;4.60;;
44228;SDS011;29904;51.058;5.378;2023-07-09T14:33:44;7.97;;;5.10;;
44228;SDS011;29904;51.058;5.378;2023-07-09T14:36:10;8.18;;;3.90;;
44228;SDS011;29904;51.058;5.378;2023-07-09T14:38:35;8.60;;;4.22;;
44228;SDS011;29904;51.058;5.378;2023-07-09T14:41:04;6.80;;;3.90;;
44228;SDS011;29904;51.058;5.378;2023-07-09T14:43:47;5.90;;;3.70;;
44228;SDS011;29904;51.058;5.378;2023-07-09T14:46:13;6.40;;;4.15;;
44228;SDS011;29904;51.058;5.378;2023-07-09T14:48:38;6.47;;;3.30;;
44228;SDS011;29904;51.058;5.378;2023-07-09T14:51:11;7.45;;;3.80;;
44228;SDS011;29904;51.058;5.378;2023-07-09T14:53:41;5.43;;;3.40;;
44228;SDS011;29904;51.058;5.378;2023-07-09T14:56:09;7.05;;;3.90;;
44228;SDS011;29904;51.058;5.378;2023-07-09T14:58:37;7.40;;;3.83;;
44228;SDS011;29904;51.058;5.378;2023-07-09T15:01:05;6.38;;;3.40;;
44228;SDS011;29904;51.058;5.378;2023-07-09T15:03:39;6.35;;;3.90;;
44228;SDS011;29904;51.058;5.378;2023-07-09T15:06:05;6.07;;;3.05;;
44228;SDS011;29904;51.058;5.378;2023-07-09T15:08:31;4.68;;;3.05;;
44228;SDS011;29904;51.058;5.378;2023-07-09T15:10:58;7.50;;;3.70;;
44228;SDS011;29904;51.058;5.378;2023-07-09T15:15:58;5.85;;;3.63;;
44228;SDS011;29904;51.058;5.378;2023-07-09T15:18:25;7.65;;;3.78;;
44228;SDS011;29904;51.058;5.378;2023-07-09T15:20:58;4.25;;;3.00;;
44228;SDS011;29904;51.058;5.378;2023-07-09T15:23:28;5.22;;;3.10;;
44228;SDS011;29904;51.058;5.378;2023-07-09T15:25:55;4.83;;;3.23;;
44228;SDS011;29904;51.058;5.378;2023-07-09T15:28:24;5.47;;;3.20;;
44228;SDS011;29904;51.058;5.378;2023-07-09T15:30:51;5.80;;;3.53;;
44228;SDS011;29904;51.058;5.378;2023-07-09T15:33:19;5.88;;;3.95;;
44228;SDS011;29904;51.058;5.378;2023-07-09T15:35:48;5.32;;;3.50;;
44228;SDS011;29904;51.058;5.378;2023-07-09T15:38:26;6.20;;;3.58;;
44228;SDS011;29904;51.058;5.378;2023-07-09T15:41:01;4.53;;;3.20;;
44228;SDS011;29904;51.058;5.378;2023-07-09T15:43:28;5.45;;;3.75;;
44228;SDS011;29904;51.058;5.378;2023-07-09T15:45:58;5.72;;;3.50;;
44228;SDS011;29904;51.058;5.378;2023-07-09T15:48:35;6.70;;;4.00;;
44228;SDS011;29904;51.058;5.378;2023-07-09T15:51:04;7.53;;;4.35;;
44228;SDS011;29904;51.058;5.378;2023-07-09T15:53:34;6.93;;;3.80;;
44228;SDS011;29904;51.058;5.378;2023-07-09T15:56:06;5.33;;;3.60;;
44228;SDS011;29904;51.058;5.378;2023-07-09T15:58:44;6.60;;;4.50;;
44228;SDS011;29904;51.058;5.378;2023-07-09T16:01:11;5.82;;;3.80;;
44228;SDS011;29904;51.058;5.378;2023-07-09T16:03:50;7.07;;;3.90;;
44228;SDS011;29904;51.058;5.378;2023-07-09T16:06:18;6.50;;;3.47;;